Terminal Aerodrome Forecast
Issued by NWS Omaha/Valley, NE

Home | Current Version | Previous Version | Text Only | Print | Product List | Glossary On
Versions: 1 2 3 4 5 6 7 8 9 10 11 12 13 14 15 16 17 18 19 20
000
FTUS43 KOAX 231120
TAFOFK
TAF
KOFK 231120Z 2312/2412 18008KT P6SM SCT250
     FM240800 35010KT P6SM SCT250 WS020/35035KT=

USA.gov is the U.S. government's official web portal to all federal, state and local government web resources and services.